Huvudsida
METAR-TAF:

METAR-TAF

Flygplatser :

Curaçaos internationella flygplats

Curaçao, Nederländska Antillerna

latitud: 12-12N, longitud: 068-58W, höjd: 9 m

Aktuellt väderrapport

Denna rapport gjordes för 26 minuter sedan, klockan 09:00 UTC
Vind 8 kt från ost/sydost
Temperatur 28°C
Fuktighet 79%
Tryck 1010 hPa
Sikt 10 km eller mer
Brutna moln på en höjd av 1800 ft

METAR: TNCC 260900Z 11008KT 9999 BKN018 28/24 Q1010 NOSIG

Tid: 05:26 (09:26 UTC)

Väderprognos

Denna rapport gjordes för 5 timmar och 26 minuter sedan, klockan 04:00 UTC
Prognos gäller från 26 kl. 06 UTC till 27 kl. 06 UTC
Vind 12 kt från ost
Sikt 10 km eller mer
Spridda moln på en höjd av 1800 ft
Temporärt
från 26 kl. 06 UTC till 26 kl. 14 UTC
Sikt: 7000 m
Brutna moln på en höjd av 1500 ft
regnskurar

TAF: TNCC 260400Z 2606/2706 10012KT 9999 SCT018 TEMPO 2606/2614 7000 SHRA BKN015

Aktuella väderrapporter och prognoser från 4000 flygplatser (METAR- och TAF-rapporter).

De tillgängliga stationerna syns som gula och röda prickar på kartan.

För musen över prickarna för att se namnen på stationerna.

Klicka sedan för att få väderrapporter och prognoser.

För att ändra kartan: Klicka på de gröna knapparna med ett svart kors på för att zooma in; den gröna knappen med ett streck på för att zooma ut; eller på de gröna pilarna för angränsande kartor.


METAR-TAF: